sensor_id;sensor_type;location;lat;lon;timestamp;temperature;humidity
13074;DHT22;6603;47.066;15.396;2022-07-23T00:01:38;21.30;1.00
13074;DHT22;6603;47.066;15.396;2022-07-23T00:04:04;21.00;5.30
13074;DHT22;6603;47.066;15.396;2022-07-23T00:06:30;21.20;1.00
13074;DHT22;6603;47.066;15.396;2022-07-23T00:08:56;21.30;1.00
13074;DHT22;6603;47.066;15.396;2022-07-23T00:11:22;21.30;1.00
13074;DHT22;6603;47.066;15.396;2022-07-23T00:13:48;21.10;1.00
13074;DHT22;6603;47.066;15.396;2022-07-23T00:16:14;21.20;1.00
13074;DHT22;6603;47.066;15.396;2022-07-23T00:18:40;21.10;1.00
13074;DHT22;6603;47.066;15.396;2022-07-23T00:21:06;21.20;1.00
13074;DHT22;6603;47.066;15.396;2022-07-23T00:23:32;21.00;1.00
13074;DHT22;6603;47.066;15.396;2022-07-23T00:25:58;21.00;1.00
13074;DHT22;6603;47.066;15.396;2022-07-23T00:28:24;20.90;1.00
13074;DHT22;6603;47.066;15.396;2022-07-23T00:30:50;21.00;1.00
13074;DHT22;6603;47.066;15.396;2022-07-23T00:33:16;21.20;1.00
13074;DHT22;6603;47.066;15.396;2022-07-23T00:35:42;21.20;1.00
13074;DHT22;6603;47.066;15.396;2022-07-23T00:38:09;21.10;1.00
13074;DHT22;6603;47.066;15.396;2022-07-23T00:40:37;21.00;1.00
13074;DHT22;6603;47.066;15.396;2022-07-23T00:43:04;20.90;1.00
13074;DHT22;6603;47.066;15.396;2022-07-23T00:45:33;20.90;1.00
13074;DHT22;6603;47.066;15.396;2022-07-23T00:47:59;20.80;9.50
13074;DHT22;6603;47.066;15.396;2022-07-23T00:50:26;20.70;14.10
13074;DHT22;6603;47.066;15.396;2022-07-23T00:52:52;20.50;78.40
13074;DHT22;6603;47.066;15.396;2022-07-23T00:55:19;20.60;94.90
13074;DHT22;6603;47.066;15.396;2022-07-23T00:57:45;20.70;54.00
13074;DHT22;6603;47.066;15.396;2022-07-23T01:00:13;20.70;1.00
13074;DHT22;6603;47.066;15.396;2022-07-23T01:02:40;20.70;1.00
13074;DHT22;6603;47.066;15.396;2022-07-23T01:05:07;20.70;31.30
13074;DHT22;6603;47.066;15.396;2022-07-23T01:07:34;20.60;90.90
13074;DHT22;6603;47.066;15.396;2022-07-23T01:10:01;20.60;20.50
13074;DHT22;6603;47.066;15.396;2022-07-23T01:12:27;20.80;1.00
13074;DHT22;6603;47.066;15.396;2022-07-23T01:14:57;20.80;1.00
13074;DHT22;6603;47.066;15.396;2022-07-23T01:17:23;21.00;1.00
13074;DHT22;6603;47.066;15.396;2022-07-23T01:19:49;20.90;1.00
13074;DHT22;6603;47.066;15.396;2022-07-23T01:22:18;20.90;1.00
13074;DHT22;6603;47.066;15.396;2022-07-23T01:24:44;20.90;1.00
13074;DHT22;6603;47.066;15.396;2022-07-23T01:27:10;20.90;1.00
13074;DHT22;6603;47.066;15.396;2022-07-23T01:29:38;20.70;1.00
13074;DHT22;6603;47.066;15.396;2022-07-23T01:32:05;20.70;19.10
13074;DHT22;6603;47.066;15.396;2022-07-23T01:34:32;20.70;3.20
13074;DHT22;6603;47.066;15.396;2022-07-23T01:36:57;20.70;1.00
13074;DHT22;6603;47.066;15.396;2022-07-23T01:39:23;20.80;1.00
13074;DHT22;6603;47.066;15.396;2022-07-23T01:41:49;20.90;1.00
13074;DHT22;6603;47.066;15.396;2022-07-23T01:44:15;20.80;1.00
13074;DHT22;6603;47.066;15.396;2022-07-23T01:46:41;20.90;1.00
13074;DHT22;6603;47.066;15.396;2022-07-23T01:49:07;20.90;1.00
13074;DHT22;6603;47.066;15.396;2022-07-23T01:51:33;20.80;1.00
13074;DHT22;6603;47.066;15.396;2022-07-23T01:53:59;20.80;1.00
13074;DHT22;6603;47.066;15.396;2022-07-23T01:56:25;20.90;1.00
13074;DHT22;6603;47.066;15.396;2022-07-23T01:58:51;20.80;1.00
13074;DHT22;6603;47.066;15.396;2022-07-23T02:01:16;20.90;1.00
13074;DHT22;6603;47.066;15.396;2022-07-23T02:03:42;20.80;1.00
13074;DHT22;6603;47.066;15.396;2022-07-23T02:06:08;20.80;1.00
13074;DHT22;6603;47.066;15.396;2022-07-23T02:08:34;20.80;1.00
13074;DHT22;6603;47.066;15.396;2022-07-23T02:11:00;20.90;1.00
13074;DHT22;6603;47.066;15.396;2022-07-23T02:13:26;21.00;1.00
13074;DHT22;6603;47.066;15.396;2022-07-23T02:15:51;21.00;1.00
13074;DHT22;6603;47.066;15.396;2022-07-23T02:18:17;21.00;1.00
13074;DHT22;6603;47.066;15.396;2022-07-23T02:20:43;21.10;1.00
13074;DHT22;6603;47.066;15.396;2022-07-23T02:23:10;21.00;1.00
13074;DHT22;6603;47.066;15.396;2022-07-23T02:25:36;21.10;1.00
13074;DHT22;6603;47.066;15.396;2022-07-23T02:28:02;21.00;1.00
13074;DHT22;6603;47.066;15.396;2022-07-23T02:30:28;21.00;1.00
13074;DHT22;6603;47.066;15.396;2022-07-23T02:32:54;21.10;1.00
13074;DHT22;6603;47.066;15.396;2022-07-23T02:35:21;20.90;1.00
13074;DHT22;6603;47.066;15.396;2022-07-23T02:37:47;20.90;1.00
13074;DHT22;6603;47.066;15.396;2022-07-23T02:40:13;20.90;1.00
13074;DHT22;6603;47.066;15.396;2022-07-23T02:42:38;20.90;1.00
13074;DHT22;6603;47.066;15.396;2022-07-23T02:45:05;20.90;1.00
13074;DHT22;6603;47.066;15.396;2022-07-23T02:47:31;20.80;1.00
13074;DHT22;6603;47.066;15.396;2022-07-23T02:49:57;20.80;1.00
13074;DHT22;6603;47.066;15.396;2022-07-23T02:52:23;20.70;1.00
13074;DHT22;6603;47.066;15.396;2022-07-23T02:54:49;20.60;1.00
13074;DHT22;6603;47.066;15.396;2022-07-23T02:57:15;20.70;1.00
13074;DHT22;6603;47.066;15.396;2022-07-23T02:59:41;20.60;24.90
13074;DHT22;6603;47.066;15.396;2022-07-23T03:02:07;20.70;1.00
13074;DHT22;6603;47.066;15.396;2022-07-23T03:04:32;20.70;16.30
13074;DHT22;6603;47.066;15.396;2022-07-23T03:06:58;20.60;44.80
13074;DHT22;6603;47.066;15.396;2022-07-23T03:09:24;20.50;49.40
13074;DHT22;6603;47.066;15.396;2022-07-23T03:11:50;20.50;72.70
13074;DHT22;6603;47.066;15.396;2022-07-23T03:14:16;20.50;46.40
13074;DHT22;6603;47.066;15.396;2022-07-23T03:16:42;20.50;84.40
13074;DHT22;6603;47.066;15.396;2022-07-23T03:19:08;20.50;42.20
13074;DHT22;6603;47.066;15.396;2022-07-23T03:21:34;20.40;33.30
13074;DHT22;6603;47.066;15.396;2022-07-23T03:24:01;20.30;99.90
13074;DHT22;6603;47.066;15.396;2022-07-23T03:26:27;20.40;31.00
13074;DHT22;6603;47.066;15.396;2022-07-23T03:28:53;20.30;48.80
13074;DHT22;6603;47.066;15.396;2022-07-23T03:31:19;20.30;90.70
13074;DHT22;6603;47.066;15.396;2022-07-23T03:33:45;20.30;99.90
13074;DHT22;6603;47.066;15.396;2022-07-23T03:36:10;20.30;58.40
13074;DHT22;6603;47.066;15.396;2022-07-23T03:38:36;20.30;99.90
13074;DHT22;6603;47.066;15.396;2022-07-23T03:41:02;20.30;93.70
13074;DHT22;6603;47.066;15.396;2022-07-23T03:43:28;20.20;99.90
13074;DHT22;6603;47.066;15.396;2022-07-23T03:45:54;20.20;99.90
13074;DHT22;6603;47.066;15.396;2022-07-23T03:48:19;20.10;99.90
13074;DHT22;6603;47.066;15.396;2022-07-23T03:50:45;19.90;99.90
13074;DHT22;6603;47.066;15.396;2022-07-23T03:53:11;20.10;99.90
13074;DHT22;6603;47.066;15.396;2022-07-23T03:55:37;20.00;99.90
13074;DHT22;6603;47.066;15.396;2022-07-23T03:58:03;20.00;99.90
13074;DHT22;6603;47.066;15.396;2022-07-23T04:00:29;20.10;99.90
13074;DHT22;6603;47.066;15.396;2022-07-23T04:02:55;20.10;99.90
13074;DHT22;6603;47.066;15.396;2022-07-23T04:05:20;20.20;99.90
13074;DHT22;6603;47.066;15.396;2022-07-23T04:07:46;20.20;99.90
13074;DHT22;6603;47.066;15.396;2022-07-23T04:10:12;20.20;82.20
13074;DHT22;6603;47.066;15.396;2022-07-23T04:12:38;20.20;99.90
13074;DHT22;6603;47.066;15.396;2022-07-23T04:15:06;20.20;99.90
13074;DHT22;6603;47.066;15.396;2022-07-23T04:17:32;20.20;99.90
13074;DHT22;6603;47.066;15.396;2022-07-23T04:19:58;20.20;99.90
13074;DHT22;6603;47.066;15.396;2022-07-23T04:22:24;20.10;99.90
13074;DHT22;6603;47.066;15.396;2022-07-23T04:24:49;20.20;99.90
13074;DHT22;6603;47.066;15.396;2022-07-23T04:27:16;20.20;99.90
13074;DHT22;6603;47.066;15.396;2022-07-23T04:29:41;20.30;99.90
13074;DHT22;6603;47.066;15.396;2022-07-23T04:32:07;20.40;99.90
13074;DHT22;6603;47.066;15.396;2022-07-23T04:34:33;20.50;99.90
13074;DHT22;6603;47.066;15.396;2022-07-23T04:36:59;20.50;99.90
13074;DHT22;6603;47.066;15.396;2022-07-23T04:39:25;20.60;99.90
13074;DHT22;6603;47.066;15.396;2022-07-23T04:41:50;20.70;75.50
13074;DHT22;6603;47.066;15.396;2022-07-23T04:44:16;20.90;74.80
13074;DHT22;6603;47.066;15.396;2022-07-23T04:46:42;20.90;27.00
13074;DHT22;6603;47.066;15.396;2022-07-23T04:49:08;21.00;89.00
13074;DHT22;6603;47.066;15.396;2022-07-23T04:51:34;21.10;30.40
13074;DHT22;6603;47.066;15.396;2022-07-23T04:54:00;21.20;26.00
13074;DHT22;6603;47.066;15.396;2022-07-23T04:56:25;21.30;1.00
13074;DHT22;6603;47.066;15.396;2022-07-23T04:58:51;21.40;1.00
13074;DHT22;6603;47.066;15.396;2022-07-23T05:01:17;21.40;1.00
13074;DHT22;6603;47.066;15.396;2022-07-23T05:03:43;21.50;1.00
13074;DHT22;6603;47.066;15.396;2022-07-23T05:06:09;21.50;1.00
13074;DHT22;6603;47.066;15.396;2022-07-23T05:08:34;21.70;1.00
13074;DHT22;6603;47.066;15.396;2022-07-23T05:11:00;21.70;1.00
13074;DHT22;6603;47.066;15.396;2022-07-23T05:13:26;21.80;1.00
13074;DHT22;6603;47.066;15.396;2022-07-23T05:15:52;21.90;1.00
13074;DHT22;6603;47.066;15.396;2022-07-23T05:18:17;22.00;1.00
13074;DHT22;6603;47.066;15.396;2022-07-23T05:20:43;22.10;1.00
13074;DHT22;6603;47.066;15.396;2022-07-23T05:23:09;22.20;1.00
13074;DHT22;6603;47.066;15.396;2022-07-23T05:25:35;22.30;1.00
13074;DHT22;6603;47.066;15.396;2022-07-23T05:28:01;22.40;1.00
13074;DHT22;6603;47.066;15.396;2022-07-23T05:30:27;22.40;1.00
13074;DHT22;6603;47.066;15.396;2022-07-23T05:32:53;22.60;1.00
13074;DHT22;6603;47.066;15.396;2022-07-23T05:35:19;22.70;1.00
13074;DHT22;6603;47.066;15.396;2022-07-23T05:37:45;22.70;1.00
13074;DHT22;6603;47.066;15.396;2022-07-23T05:40:11;22.80;1.00
13074;DHT22;6603;47.066;15.396;2022-07-23T05:42:39;22.90;1.00
13074;DHT22;6603;47.066;15.396;2022-07-23T05:45:06;23.10;1.00
13074;DHT22;6603;47.066;15.396;2022-07-23T05:47:42;23.30;1.00
13074;DHT22;6603;47.066;15.396;2022-07-23T05:50:08;23.40;1.00
13074;DHT22;6603;47.066;15.396;2022-07-23T05:52:34;23.60;99.90
13074;DHT22;6603;47.066;15.396;2022-07-23T05:55:00;23.70;1.00
13074;DHT22;6603;47.066;15.396;2022-07-23T05:57:26;23.90;1.00
13074;DHT22;6603;47.066;15.396;2022-07-23T05:59:51;24.00;1.00
13074;DHT22;6603;47.066;15.396;2022-07-23T06:02:17;24.20;99.90
13074;DHT22;6603;47.066;15.396;2022-07-23T06:04:43;24.20;1.00
13074;DHT22;6603;47.066;15.396;2022-07-23T06:07:08;24.40;1.00
13074;DHT22;6603;47.066;15.396;2022-07-23T06:09:34;24.60;1.00
13074;DHT22;6603;47.066;15.396;2022-07-23T06:12:00;24.70;1.00
13074;DHT22;6603;47.066;15.396;2022-07-23T06:14:25;24.80;1.00
13074;DHT22;6603;47.066;15.396;2022-07-23T06:16:51;25.00;1.00
13074;DHT22;6603;47.066;15.396;2022-07-23T06:19:17;25.10;1.00
13074;DHT22;6603;47.066;15.396;2022-07-23T06:21:43;25.30;1.00
13074;DHT22;6603;47.066;15.396;2022-07-23T06:24:08;25.50;1.00
13074;DHT22;6603;47.066;15.396;2022-07-23T06:26:34;25.60;1.00
13074;DHT22;6603;47.066;15.396;2022-07-23T06:29:00;25.60;1.00
13074;DHT22;6603;47.066;15.396;2022-07-23T06:31:26;25.70;14.20
13074;DHT22;6603;47.066;15.396;2022-07-23T06:33:51;25.70;99.90
13074;DHT22;6603;47.066;15.396;2022-07-23T06:36:17;25.70;1.00
13074;DHT22;6603;47.066;15.396;2022-07-23T06:38:43;25.70;99.90
13074;DHT22;6603;47.066;15.396;2022-07-23T06:41:09;26.00;99.90
13074;DHT22;6603;47.066;15.396;2022-07-23T06:43:35;26.20;82.70
13074;DHT22;6603;47.066;15.396;2022-07-23T06:46:00;26.30;1.00
13074;DHT22;6603;47.066;15.396;2022-07-23T06:48:27;26.50;1.00
13074;DHT22;6603;47.066;15.396;2022-07-23T06:50:53;26.60;1.00
13074;DHT22;6603;47.066;15.396;2022-07-23T06:53:20;26.90;1.00
13074;DHT22;6603;47.066;15.396;2022-07-23T06:55:45;27.10;99.90
13074;DHT22;6603;47.066;15.396;2022-07-23T06:58:11;27.30;1.00
13074;DHT22;6603;47.066;15.396;2022-07-23T07:00:39;27.60;99.90
13074;DHT22;6603;47.066;15.396;2022-07-23T07:03:05;27.80;99.90
13074;DHT22;6603;47.066;15.396;2022-07-23T07:05:32;28.00;99.90
13074;DHT22;6603;47.066;15.396;2022-07-23T07:07:58;28.40;99.90
13074;DHT22;6603;47.066;15.396;2022-07-23T07:10:24;28.60;99.90
13074;DHT22;6603;47.066;15.396;2022-07-23T07:12:50;28.40;29.00
13074;DHT22;6603;47.066;15.396;2022-07-23T07:15:15;28.50;99.90
13074;DHT22;6603;47.066;15.396;2022-07-23T07:17:41;28.40;97.80
13074;DHT22;6603;47.066;15.396;2022-07-23T07:20:08;28.40;1.00
13074;DHT22;6603;47.066;15.396;2022-07-23T07:22:34;28.30;51.20
13074;DHT22;6603;47.066;15.396;2022-07-23T07:25:00;28.40;76.50
13074;DHT22;6603;47.066;15.396;2022-07-23T07:27:26;28.50;1.00
13074;DHT22;6603;47.066;15.396;2022-07-23T07:29:52;28.60;1.00
13074;DHT22;6603;47.066;15.396;2022-07-23T07:32:18;28.60;1.00
13074;DHT22;6603;47.066;15.396;2022-07-23T07:34:43;28.80;1.00
13074;DHT22;6603;47.066;15.396;2022-07-23T07:37:09;28.80;1.00
13074;DHT22;6603;47.066;15.396;2022-07-23T07:39:35;28.80;1.00
13074;DHT22;6603;47.066;15.396;2022-07-23T07:42:01;28.90;1.00
13074;DHT22;6603;47.066;15.396;2022-07-23T07:44:27;29.20;1.00
13074;DHT22;6603;47.066;15.396;2022-07-23T07:46:52;29.30;1.00
13074;DHT22;6603;47.066;15.396;2022-07-23T07:49:18;29.50;1.00
13074;DHT22;6603;47.066;15.396;2022-07-23T07:51:45;29.80;1.00
13074;DHT22;6603;47.066;15.396;2022-07-23T07:54:12;29.90;1.00
13074;DHT22;6603;47.066;15.396;2022-07-23T07:56:37;30.30;1.00
13074;DHT22;6603;47.066;15.396;2022-07-23T07:59:03;30.30;1.00
13074;DHT22;6603;47.066;15.396;2022-07-23T08:01:29;30.40;1.00
13074;DHT22;6603;47.066;15.396;2022-07-23T08:03:55;30.40;1.00
13074;DHT22;6603;47.066;15.396;2022-07-23T08:06:21;30.30;1.00
13074;DHT22;6603;47.066;15.396;2022-07-23T08:08:47;30.30;1.00
13074;DHT22;6603;47.066;15.396;2022-07-23T08:11:13;30.40;1.00
13074;DHT22;6603;47.066;15.396;2022-07-23T08:13:39;30.60;1.00
13074;DHT22;6603;47.066;15.396;2022-07-23T08:16:05;30.50;1.00
13074;DHT22;6603;47.066;15.396;2022-07-23T08:18:31;30.70;1.00
13074;DHT22;6603;47.066;15.396;2022-07-23T08:20:58;31.00;1.00
13074;DHT22;6603;47.066;15.396;2022-07-23T08:23:24;31.00;99.90
13074;DHT22;6603;47.066;15.396;2022-07-23T08:25:49;31.10;99.90
13074;DHT22;6603;47.066;15.396;2022-07-23T08:28:15;31.30;99.90
13074;DHT22;6603;47.066;15.396;2022-07-23T08:30:43;31.30;99.90
13074;DHT22;6603;47.066;15.396;2022-07-23T08:33:12;31.60;99.90
13074;DHT22;6603;47.066;15.396;2022-07-23T08:35:41;31.70;99.90
13074;DHT22;6603;47.066;15.396;2022-07-23T08:38:09;31.70;99.90
13074;DHT22;6603;47.066;15.396;2022-07-23T08:40:37;31.90;99.90
13074;DHT22;6603;47.066;15.396;2022-07-23T08:43:05;32.30;99.90
13074;DHT22;6603;47.066;15.396;2022-07-23T08:45:39;32.40;99.90
13074;DHT22;6603;47.066;15.396;2022-07-23T08:48:11;32.30;99.90
13074;DHT22;6603;47.066;15.396;2022-07-23T08:50:37;32.10;99.90
13074;DHT22;6603;47.066;15.396;2022-07-23T08:53:11;32.20;99.90
13074;DHT22;6603;47.066;15.396;2022-07-23T08:55:38;32.70;99.90
13074;DHT22;6603;47.066;15.396;2022-07-23T08:58:04;32.80;99.90
13074;DHT22;6603;47.066;15.396;2022-07-23T09:00:30;33.10;99.90
13074;DHT22;6603;47.066;15.396;2022-07-23T09:02:56;33.20;99.90
13074;DHT22;6603;47.066;15.396;2022-07-23T09:05:21;33.10;99.90
13074;DHT22;6603;47.066;15.396;2022-07-23T09:08:07;33.00;99.90
13074;DHT22;6603;47.066;15.396;2022-07-23T09:10:54;32.80;99.90
13074;DHT22;6603;47.066;15.396;2022-07-23T09:13:37;32.80;99.90
13074;DHT22;6603;47.066;15.396;2022-07-23T09:16:19;32.90;99.90
13074;DHT22;6603;47.066;15.396;2022-07-23T09:18:55;32.80;99.90
13074;DHT22;6603;47.066;15.396;2022-07-23T09:21:24;32.60;99.90
13074;DHT22;6603;47.066;15.396;2022-07-23T09:23:59;32.40;99.90
13074;DHT22;6603;47.066;15.396;2022-07-23T09:26:44;32.10;99.90
13074;DHT22;6603;47.066;15.396;2022-07-23T09:29:32;32.00;99.90
13074;DHT22;6603;47.066;15.396;2022-07-23T09:34:27;31.70;99.90
13074;DHT22;6603;47.066;15.396;2022-07-23T09:37:09;31.70;99.90
13074;DHT22;6603;47.066;15.396;2022-07-23T09:39:35;31.70;99.90
13074;DHT22;6603;47.066;15.396;2022-07-23T09:42:17;31.60;99.90
13074;DHT22;6603;47.066;15.396;2022-07-23T09:44:46;31.60;99.90
13074;DHT22;6603;47.066;15.396;2022-07-23T09:47:12;31.60;99.90
13074;DHT22;6603;47.066;15.396;2022-07-23T09:49:38;31.50;99.90
13074;DHT22;6603;47.066;15.396;2022-07-23T09:52:04;31.80;99.90
13074;DHT22;6603;47.066;15.396;2022-07-23T09:57:10;32.00;99.90
13074;DHT22;6603;47.066;15.396;2022-07-23T09:59:41;32.00;99.90
13074;DHT22;6603;47.066;15.396;2022-07-23T10:02:08;32.00;99.90
13074;DHT22;6603;47.066;15.396;2022-07-23T10:04:35;32.10;99.90
13074;DHT22;6603;47.066;15.396;2022-07-23T10:07:03;32.20;99.90
13074;DHT22;6603;47.066;15.396;2022-07-23T10:09:35;32.10;99.90
13074;DHT22;6603;47.066;15.396;2022-07-23T10:12:13;32.20;99.90
13074;DHT22;6603;47.066;15.396;2022-07-23T10:14:58;32.20;99.90
13074;DHT22;6603;47.066;15.396;2022-07-23T10:17:25;31.80;99.90
13074;DHT22;6603;47.066;15.396;2022-07-23T10:19:52;32.00;99.90
13074;DHT22;6603;47.066;15.396;2022-07-23T10:22:27;32.30;99.90
13074;DHT22;6603;47.066;15.396;2022-07-23T10:25:07;32.40;99.90
13074;DHT22;6603;47.066;15.396;2022-07-23T10:33:01;33.20;99.90
13074;DHT22;6603;47.066;15.396;2022-07-23T10:38:51;33.40;99.90
13074;DHT22;6603;47.066;15.396;2022-07-23T10:41:35;33.00;99.90
13074;DHT22;6603;47.066;15.396;2022-07-23T10:44:21;33.20;99.90
13074;DHT22;6603;47.066;15.396;2022-07-23T10:47:02;33.10;99.90
13074;DHT22;6603;47.066;15.396;2022-07-23T10:49:32;33.30;99.90
13074;DHT22;6603;47.066;15.396;2022-07-23T10:54:44;33.50;99.90
13074;DHT22;6603;47.066;15.396;2022-07-23T10:57:11;33.90;99.90
13074;DHT22;6603;47.066;15.396;2022-07-23T11:02:32;34.40;99.90
13074;DHT22;6603;47.066;15.396;2022-07-23T11:05:13;34.30;99.90
13074;DHT22;6603;47.066;15.396;2022-07-23T11:10:52;34.00;99.90
13074;DHT22;6603;47.066;15.396;2022-07-23T11:24:12;34.40;99.90
13074;DHT22;6603;47.066;15.396;2022-07-23T11:32:17;34.30;99.90
13074;DHT22;6603;47.066;15.396;2022-07-23T11:34:48;34.20;99.90
13074;DHT22;6603;47.066;15.396;2022-07-23T11:37:38;34.10;99.90
13074;DHT22;6603;47.066;15.396;2022-07-23T11:40:07;34.60;99.90
13074;DHT22;6603;47.066;15.396;2022-07-23T11:42:35;34.90;99.90
13074;DHT22;6603;47.066;15.396;2022-07-23T11:45:01;34.60;99.90
13074;DHT22;6603;47.066;15.396;2022-07-23T11:47:27;34.70;99.90
13074;DHT22;6603;47.066;15.396;2022-07-23T11:49:59;35.10;99.90
13074;DHT22;6603;47.066;15.396;2022-07-23T11:52:26;34.80;99.90
13074;DHT22;6603;47.066;15.396;2022-07-23T11:57:33;34.60;99.90
13074;DHT22;6603;47.066;15.396;2022-07-23T12:02:35;34.60;99.90
13074;DHT22;6603;47.066;15.396;2022-07-23T12:05:01;34.70;99.90
13074;DHT22;6603;47.066;15.396;2022-07-23T12:07:41;34.90;99.90
13074;DHT22;6603;47.066;15.396;2022-07-23T12:10:21;35.10;99.90
13074;DHT22;6603;47.066;15.396;2022-07-23T12:15:23;35.10;99.90
13074;DHT22;6603;47.066;15.396;2022-07-23T12:17:51;35.70;99.90
13074;DHT22;6603;47.066;15.396;2022-07-23T12:20:23;35.80;99.90
13074;DHT22;6603;47.066;15.396;2022-07-23T12:22:51;35.40;99.90
13074;DHT22;6603;47.066;15.396;2022-07-23T12:25:22;34.60;99.90
13074;DHT22;6603;47.066;15.396;2022-07-23T12:28:00;34.60;99.90
13074;DHT22;6603;47.066;15.396;2022-07-23T12:30:39;34.80;99.90
13074;DHT22;6603;47.066;15.396;2022-07-23T12:33:07;34.90;99.90
13074;DHT22;6603;47.066;15.396;2022-07-23T12:35:45;35.10;99.90
13074;DHT22;6603;47.066;15.396;2022-07-23T12:38:17;35.50;99.90
13074;DHT22;6603;47.066;15.396;2022-07-23T12:40:51;35.60;99.90
13074;DHT22;6603;47.066;15.396;2022-07-23T12:43:25;35.60;99.90
13074;DHT22;6603;47.066;15.396;2022-07-23T12:45:53;35.20;99.90
13074;DHT22;6603;47.066;15.396;2022-07-23T12:50:59;35.60;99.90
13074;DHT22;6603;47.066;15.396;2022-07-23T12:53:27;35.60;99.90
13074;DHT22;6603;47.066;15.396;2022-07-23T12:56:12;35.50;99.90
13074;DHT22;6603;47.066;15.396;2022-07-23T13:06:24;36.50;99.90
13074;DHT22;6603;47.066;15.396;2022-07-23T13:08:49;35.80;99.90
13074;DHT22;6603;47.066;15.396;2022-07-23T13:11:15;35.90;99.90
13074;DHT22;6603;47.066;15.396;2022-07-23T13:13:41;35.80;99.90
13074;DHT22;6603;47.066;15.396;2022-07-23T13:16:07;35.60;99.90
13074;DHT22;6603;47.066;15.396;2022-07-23T13:18:33;35.40;99.90
13074;DHT22;6603;47.066;15.396;2022-07-23T13:20:59;35.80;99.90
13074;DHT22;6603;47.066;15.396;2022-07-23T13:23:25;36.30;99.90
13074;DHT22;6603;47.066;15.396;2022-07-23T13:25:52;36.30;99.90
13074;DHT22;6603;47.066;15.396;2022-07-23T13:28:19;35.70;99.90
13074;DHT22;6603;47.066;15.396;2022-07-23T13:30:46;35.20;99.90
13074;DHT22;6603;47.066;15.396;2022-07-23T13:33:14;35.10;99.90
13074;DHT22;6603;47.066;15.396;2022-07-23T13:35:40;34.60;99.90
13074;DHT22;6603;47.066;15.396;2022-07-23T13:38:06;34.30;99.90
13074;DHT22;6603;47.066;15.396;2022-07-23T13:40:40;34.00;99.90
13074;DHT22;6603;47.066;15.396;2022-07-23T13:43:09;34.50;99.90
13074;DHT22;6603;47.066;15.396;2022-07-23T13:45:36;34.60;99.90
13074;DHT22;6603;47.066;15.396;2022-07-23T13:48:05;35.10;99.90
13074;DHT22;6603;47.066;15.396;2022-07-23T13:50:31;35.10;99.90
13074;DHT22;6603;47.066;15.396;2022-07-23T13:52:57;34.90;99.90
13074;DHT22;6603;47.066;15.396;2022-07-23T13:55:25;34.70;99.90
13074;DHT22;6603;47.066;15.396;2022-07-23T13:57:51;35.20;99.90
13074;DHT22;6603;47.066;15.396;2022-07-23T14:00:17;35.10;99.90
13074;DHT22;6603;47.066;15.396;2022-07-23T14:02:43;35.10;99.90
13074;DHT22;6603;47.066;15.396;2022-07-23T14:05:10;35.00;99.90
13074;DHT22;6603;47.066;15.396;2022-07-23T14:07:37;34.90;99.90
13074;DHT22;6603;47.066;15.396;2022-07-23T14:10:05;34.70;99.90
13074;DHT22;6603;47.066;15.396;2022-07-23T14:12:31;34.70;99.90
13074;DHT22;6603;47.066;15.396;2022-07-23T14:14:57;35.40;99.90
13074;DHT22;6603;47.066;15.396;2022-07-23T14:17:23;36.00;99.90
13074;DHT22;6603;47.066;15.396;2022-07-23T14:19:48;36.20;99.90
13074;DHT22;6603;47.066;15.396;2022-07-23T14:22:14;36.70;99.90
13074;DHT22;6603;47.066;15.396;2022-07-23T14:24:40;36.80;99.90
13074;DHT22;6603;47.066;15.396;2022-07-23T14:27:06;36.20;99.90
13074;DHT22;6603;47.066;15.396;2022-07-23T14:29:32;36.20;99.90
13074;DHT22;6603;47.066;15.396;2022-07-23T14:31:58;36.10;99.90
13074;DHT22;6603;47.066;15.396;2022-07-23T14:34:25;36.50;99.90
13074;DHT22;6603;47.066;15.396;2022-07-23T14:36:51;36.60;99.90
13074;DHT22;6603;47.066;15.396;2022-07-23T14:39:17;36.60;99.90
13074;DHT22;6603;47.066;15.396;2022-07-23T14:41:43;36.60;99.90
13074;DHT22;6603;47.066;15.396;2022-07-23T14:44:09;36.40;99.90
13074;DHT22;6603;47.066;15.396;2022-07-23T14:46:36;36.00;99.90
13074;DHT22;6603;47.066;15.396;2022-07-23T14:49:02;35.40;99.90
13074;DHT22;6603;47.066;15.396;2022-07-23T14:51:28;35.10;99.90
13074;DHT22;6603;47.066;15.396;2022-07-23T14:53:54;35.10;99.90
13074;DHT22;6603;47.066;15.396;2022-07-23T14:56:20;35.50;99.90
13074;DHT22;6603;47.066;15.396;2022-07-23T14:58:47;36.10;99.90
13074;DHT22;6603;47.066;15.396;2022-07-23T15:01:12;36.60;99.90
13074;DHT22;6603;47.066;15.396;2022-07-23T15:03:38;36.50;99.90
13074;DHT22;6603;47.066;15.396;2022-07-23T15:06:04;36.90;99.90
13074;DHT22;6603;47.066;15.396;2022-07-23T15:08:30;37.00;99.90
13074;DHT22;6603;47.066;15.396;2022-07-23T15:10:56;37.00;99.90
13074;DHT22;6603;47.066;15.396;2022-07-23T15:13:22;36.70;99.90
13074;DHT22;6603;47.066;15.396;2022-07-23T15:15:47;36.20;99.90
13074;DHT22;6603;47.066;15.396;2022-07-23T15:18:14;36.10;99.90
13074;DHT22;6603;47.066;15.396;2022-07-23T15:20:40;36.40;99.90
13074;DHT22;6603;47.066;15.396;2022-07-23T15:23:07;36.50;99.90
13074;DHT22;6603;47.066;15.396;2022-07-23T15:25:33;36.40;99.90
13074;DHT22;6603;47.066;15.396;2022-07-23T15:27:59;36.70;99.90
13074;DHT22;6603;47.066;15.396;2022-07-23T15:30:26;36.80;99.90
13074;DHT22;6603;47.066;15.396;2022-07-23T15:32:51;36.80;99.90
13074;DHT22;6603;47.066;15.396;2022-07-23T15:35:17;36.40;99.90
13074;DHT22;6603;47.066;15.396;2022-07-23T15:37:43;36.50;99.90
13074;DHT22;6603;47.066;15.396;2022-07-23T15:40:10;36.30;99.90
13074;DHT22;6603;47.066;15.396;2022-07-23T15:42:36;36.50;99.90
13074;DHT22;6603;47.066;15.396;2022-07-23T15:45:03;36.50;99.90
13074;DHT22;6603;47.066;15.396;2022-07-23T15:47:29;37.00;99.90
13074;DHT22;6603;47.066;15.396;2022-07-23T15:49:55;37.10;99.90
13074;DHT22;6603;47.066;15.396;2022-07-23T15:52:21;37.30;99.90
13074;DHT22;6603;47.066;15.396;2022-07-23T15:54:46;37.70;99.90
13074;DHT22;6603;47.066;15.396;2022-07-23T15:57:12;37.70;99.90
13074;DHT22;6603;47.066;15.396;2022-07-23T15:59:38;37.00;99.90
13074;DHT22;6603;47.066;15.396;2022-07-23T16:02:05;36.30;99.90
13074;DHT22;6603;47.066;15.396;2022-07-23T16:04:31;36.60;99.90
13074;DHT22;6603;47.066;15.396;2022-07-23T16:06:57;37.10;99.90
13074;DHT22;6603;47.066;15.396;2022-07-23T16:09:25;37.60;99.90
13074;DHT22;6603;47.066;15.396;2022-07-23T16:11:51;37.80;99.90
13074;DHT22;6603;47.066;15.396;2022-07-23T16:14:19;38.00;99.90
13074;DHT22;6603;47.066;15.396;2022-07-23T16:16:47;38.50;99.90
13074;DHT22;6603;47.066;15.396;2022-07-23T16:19:13;38.40;99.90
13074;DHT22;6603;47.066;15.396;2022-07-23T16:21:38;37.90;99.90
13074;DHT22;6603;47.066;15.396;2022-07-23T16:24:04;37.60;99.90
13074;DHT22;6603;47.066;15.396;2022-07-23T16:26:31;37.30;99.90
13074;DHT22;6603;47.066;15.396;2022-07-23T16:28:57;37.10;99.90
13074;DHT22;6603;47.066;15.396;2022-07-23T16:31:23;37.60;99.90
13074;DHT22;6603;47.066;15.396;2022-07-23T16:33:51;37.60;99.90